Time;durP1;ratioP1;P1;durP2;ratioP2;P2;SDS_P1;SDS_P2;PMS_P1;PMS_P2;Temp;Humidity;BMP_temperature;BMP_pressure;BME280_temperature;BME280_humidity;BME280_pressure;Samples;Min_cycle;Max_cycle;Signal;HPM_P1;HPM_P2
2023/04/19 00:02:02;;;;;;;6.80;5.10;;;17.90;75.50;;;;;;10872425;32;20318;-72
2023/04/19 00:08:05;;;;;;;6.55;4.93;;;17.90;76.20;;;;;;10872241;32;20338;-72
2023/04/19 00:14:07;;;;;;;7.60;4.57;;;17.90;76.60;;;;;;10858843;32;20035;-72
2023/04/19 00:20:10;;;;;;;7.53;5.72;;;17.90;76.30;;;;;;10871778;32;20435;-72
2023/04/19 00:26:14;;;;;;;6.70;4.68;;;17.80;76.30;;;;;;10867789;32;20019;-72
2023/04/19 00:32:17;;;;;;;5.82;4.55;;;17.80;76.40;;;;;;10871101;32;20019;-72
2023/04/19 00:38:19;;;;;;;5.53;3.62;;;17.70;76.30;;;;;;10870210;32;20035;-72
2023/04/19 00:44:21;;;;;;;7.22;5.00;;;17.80;76.10;;;;;;10870947;32;20428;-72
2023/04/19 00:50:24;;;;;;;7.60;5.50;;;17.70;76.20;;;;;;10870753;32;20023;-72
2023/04/19 00:56:26;;;;;;;10.35;4.65;;;17.60;76.30;;;;;;10870442;32;20028;-72
2023/04/19 01:02:28;;;;;;;7.60;5.45;;;17.60;76.60;;;;;;10870495;32;20322;-72
2023/04/19 01:08:30;;;;;;;8.80;5.45;;;17.80;76.10;;;;;;10869559;32;20386;-73
2023/04/19 01:14:33;;;;;;;9.38;5.87;;;17.80;76.10;;;;;;10869936;32;20032;-72
2023/04/19 01:20:34;;;;;;;8.00;5.45;;;17.70;76.00;;;;;;10869925;32;20023;-72
2023/04/19 01:26:36;;;;;;;7.35;4.80;;;17.80;76.30;;;;;;10868806;32;20035;-72
2023/04/19 01:32:38;;;;;;;8.95;6.07;;;17.70;76.00;;;;;;10869456;32;20015;-72
2023/04/19 01:38:40;;;;;;;8.48;5.45;;;17.80;76.00;;;;;;10855577;32;20394;-70
2023/04/19 01:44:44;;;;;;;6.28;4.37;;;17.70;76.00;;;;;;10868923;32;20059;-70
2023/04/19 01:50:47;;;;;;;7.68;4.55;;;17.60;76.20;;;;;;10852101;32;20050;-70
2023/04/19 01:56:49;;;;;;;6.90;4.50;;;17.50;76.10;;;;;;10868526;32;20046;-70
2023/04/19 02:02:51;;;;;;;7.78;4.28;;;17.50;76.30;;;;;;10867007;32;20040;-71
2023/04/19 02:08:53;;;;;;;4.85;3.58;;;17.40;76.50;;;;;;10854385;32;20031;-70
2023/04/19 02:15:00;;;;;;;5.72;3.53;;;17.30;76.60;;;;;;10867910;32;20394;-70
2023/04/19 02:21:05;;;;;;;6.40;4.10;;;17.30;76.90;;;;;;10867596;32;20051;-71
2023/04/19 02:27:07;;;;;;;4.95;3.72;;;17.20;76.90;;;;;;10866744;32;20428;-70
2023/04/19 02:33:09;;;;;;;4.78;3.33;;;17.20;77.00;;;;;;10867262;32;20031;-70
2023/04/19 02:39:11;;;;;;;4.15;3.03;;;17.30;77.00;;;;;;10866442;32;20019;-70
2023/04/19 02:45:13;;;;;;;5.22;3.40;;;17.30;76.90;;;;;;10863044;32;20019;-70
2023/04/19 02:51:16;;;;;;;3.53;3.00;;;17.30;77.10;;;;;;10864656;32;20342;-70
2023/04/19 02:57:18;;;;;;;3.58;2.75;;;17.30;77.10;;;;;;10864692;32;20440;-70
2023/04/19 03:03:20;;;;;;;4.30;2.83;;;17.30;77.10;;;;;;10866609;32;20020;-70
2023/04/19 03:09:23;;;;;;;3.22;2.17;;;17.30;77.20;;;;;;10853236;32;20042;-70
2023/04/19 03:15:26;;;;;;;4.45;2.80;;;17.20;77.30;;;;;;10865174;32;20398;-70
2023/04/19 03:21:28;;;;;;;4.60;3.17;;;17.20;77.40;;;;;;10862930;32;20032;-71
2023/04/19 03:27:36;;;;;;;4.15;2.95;;;17.20;77.20;;;;;;10866132;32;20061;-70
2023/04/19 03:33:40;;;;;;;5.93;3.78;;;17.30;77.10;;;;;;10872300;32;20053;-70
2023/04/19 03:39:43;;;;;;;4.72;3.37;;;17.20;77.20;;;;;;10874590;32;20019;-70
2023/04/19 03:45:47;;;;;;;3.47;2.28;;;17.30;77.20;;;;;;10874133;32;20346;-70
2023/04/19 03:51:49;;;;;;;4.95;3.35;;;17.20;77.20;;;;;;10869851;32;20019;-70
2023/04/19 03:57:51;;;;;;;3.58;2.92;;;17.20;77.10;;;;;;10873288;32;20023;-70
2023/04/19 04:03:54;;;;;;;4.03;2.47;;;17.10;77.10;;;;;;10873155;32;20051;-70
2023/04/19 04:09:56;;;;;;;5.15;3.15;;;17.10;77.30;;;;;;10870175;32;20050;-70
2023/04/19 04:15:59;;;;;;;5.55;3.50;;;17.00;78.00;;;;;;10871774;32;20011;-70
2023/04/19 04:22:02;;;;;;;4.32;3.03;;;17.10;78.50;;;;;;10871917;32;20023;-70
2023/04/19 04:28:07;;;;;;;6.40;3.33;;;17.10;78.10;;;;;;10872172;32;20012;-70
2023/04/19 04:34:09;;;;;;;4.25;3.17;;;17.10;77.70;;;;;;10857984;32;20070;-70
2023/04/19 04:40:12;;;;;;;7.37;2.78;;;17.00;77.80;;;;;;10871875;32;20016;-70
2023/04/19 04:46:14;;;;;;;4.95;3.12;;;16.90;78.00;;;;;;10871398;32;20494;-70
2023/04/19 04:52:17;;;;;;;3.90;2.42;;;17.00;77.90;;;;;;10871545;32;20020;-70
2023/04/19 04:58:23;;;;;;;3.78;2.37;;;16.90;78.00;;;;;;10871599;32;20028;-70
2023/04/19 05:04:30;;;;;;;4.12;2.30;;;16.90;77.90;;;;;;10866900;32;20027;-70
2023/04/19 05:10:36;;;;;;;3.83;2.35;;;16.80;78.00;;;;;;10867791;32;20050;-72
2023/04/19 05:16:39;;;;;;;3.05;1.83;;;16.80;78.10;;;;;;10870023;32;20027;-73
2023/04/19 05:22:41;;;;;;;3.12;2.20;;;16.90;77.90;;;;;;10865861;32;20015;-72
2023/04/19 05:28:44;;;;;;;3.72;2.58;;;16.80;78.10;;;;;;10869631;32;20016;-72
2023/04/19 05:34:46;;;;;;;3.47;1.95;;;16.80;78.30;;;;;;10868844;32;20098;-72
2023/04/19 05:40:49;;;;;;;3.25;1.92;;;16.90;78.20;;;;;;10869159;32;20042;-72
2023/04/19 05:46:54;;;;;;;5.07;2.67;;;17.00;78.30;;;;;;10866737;32;20306;-72
2023/04/19 05:52:58;;;;;;;5.35;3.35;;;17.00;78.50;;;;;;10868326;32;20034;-72
2023/04/19 05:59:02;;;;;;;4.60;2.80;;;17.00;78.50;;;;;;10866217;32;20057;-72
2023/04/19 06:05:06;;;;;;;8.57;3.92;;;17.00;78.50;;;;;;10868152;32;20062;-70
2023/04/19 06:11:08;;;;;;;4.10;2.50;;;17.10;78.30;;;;;;10876618;32;20053;-70
2023/04/19 06:17:10;;;;;;;8.60;4.70;;;17.00;78.40;;;;;;10890740;32;20074;-70
2023/04/19 06:23:16;;;;;;;5.37;3.60;;;17.00;78.10;;;;;;10850809;32;20039;-70
2023/04/19 06:29:20;;;;;;;5.55;3.58;;;16.90;78.00;;;;;;10868528;32;20417;-70
2023/04/19 06:35:24;;;;;;;6.57;3.72;;;17.00;77.80;;;;;;10867676;32;20020;-70
2023/04/19 06:41:26;;;;;;;6.20;3.55;;;17.20;77.90;;;;;;10867423;32;20019;-71
2023/04/19 06:47:32;;;;;;;6.32;2.58;;;17.40;77.80;;;;;;10854787;32;20054;-71
2023/04/19 06:53:35;;;;;;;6.28;3.78;;;17.70;77.80;;;;;;10865111;32;20077;-71
2023/04/19 07:00:05;;;;;;;;;;;17.70;77.40;;;;;;10867880;32;20024;-71
2023/04/19 07:06:07;;;;;;;5.22;3.90;;;17.80;77.50;;;;;;10848118;32;19927;-70
2023/04/19 07:12:09;;;;;;;6.65;4.12;;;18.00;77.70;;;;;;10865890;32;20416;-71
2023/04/19 07:18:14;;;;;;;4.93;3.45;;;18.20;76.80;;;;;;10853218;32;20031;-70
2023/04/19 07:24:17;;;;;;;3.78;2.15;;;18.30;75.90;;;;;;10865828;32;20023;-70
2023/04/19 07:30:19;;;;;;;3.92;2.55;;;18.60;76.00;;;;;;10861934;32;20054;-71
2023/04/19 07:36:21;;;;;;;4.72;2.17;;;18.70;75.70;;;;;;10851650;32;20053;-70
2023/04/19 07:42:24;;;;;;;4.03;2.50;;;18.80;75.70;;;;;;10866852;32;20337;-70
2023/04/19 07:48:26;;;;;;;4.43;2.30;;;18.60;75.40;;;;;;10866325;32;20039;-70
2023/04/19 07:54:30;;;;;;;3.62;2.22;;;18.60;75.40;;;;;;10652837;27;7108058;-71
2023/04/19 08:00:35;;;;;;;4.60;2.83;;;18.70;75.50;;;;;;10865386;32;20042;-70
2023/04/19 08:06:40;;;;;;;5.72;3.70;;;18.60;75.60;;;;;;10836278;32;20031;-71
2023/04/19 08:12:43;;;;;;;4.65;3.22;;;18.70;75.00;;;;;;10853203;32;20020;-71
2023/04/19 08:18:45;;;;;;;11.77;3.28;;;18.70;74.60;;;;;;10868795;32;20077;-70
2023/04/19 08:24:50;;;;;;;4.55;3.05;;;18.70;73.60;;;;;;10859365;32;20414;-70
2023/04/19 08:30:54;;;;;;;3.83;2.87;;;18.80;74.10;;;;;;10870725;32;20019;-71
2023/04/19 08:36:56;;;;;;;4.72;2.92;;;18.80;73.80;;;;;;10859938;32;20019;-71
2023/04/19 08:42:58;;;;;;;4.35;2.62;;;18.90;74.30;;;;;;10857849;32;20024;-71
2023/04/19 08:49:03;;;;;;;5.82;3.90;;;19.00;73.80;;;;;;10870531;32;20054;-71
2023/04/19 08:55:07;;;;;;;5.75;3.62;;;19.00;73.30;;;;;;10834263;32;20051;-71
2023/04/19 09:01:10;;;;;;;4.20;2.33;;;19.10;72.50;;;;;;10833213;32;20025;-71
2023/04/19 09:07:26;;;;;;;1.85;1.65;;;19.30;72.10;;;;;;10834590;32;20314;-71
2023/04/19 09:13:29;;;;;;;3.10;2.10;;;19.60;72.00;;;;;;10831988;32;20023;-71
2023/04/19 09:19:45;;;;;;;3.12;1.85;;;19.70;71.10;;;;;;10833495;32;20007;-70
2023/04/19 09:25:56;;;;;;;3.72;2.05;;;19.80;70.00;;;;;;10832098;32;20058;-71
2023/04/19 09:31:59;;;;;;;4.22;2.22;;;19.80;69.20;;;;;;10832443;32;20024;-71
2023/04/19 09:38:01;;;;;;;4.47;3.12;;;19.70;67.90;;;;;;10833288;32;20024;-71
2023/04/19 09:44:11;;;;;;;3.47;1.95;;;19.50;68.50;;;;;;10829314;32;20406;-71
2023/04/19 09:50:14;;;;;;;3.05;1.85;;;19.70;67.90;;;;;;10832302;32;20032;-71
2023/04/19 09:56:16;;;;;;;3.33;1.75;;;19.90;66.50;;;;;;10830410;32;20059;-71
2023/04/19 10:02:19;;;;;;;4.87;2.87;;;20.20;66.30;;;;;;10830056;32;20024;-71
2023/04/19 10:08:22;;;;;;;3.47;2.17;;;20.10;66.20;;;;;;10825438;33;20397;-70
2023/04/19 10:14:28;;;;;;;4.80;2.75;;;19.90;66.30;;;;;;10832134;32;20437;-71
2023/04/19 10:20:57;;;;;;;2.97;1.85;;;19.70;65.80;;;;;;10831480;32;20039;-70
2023/04/19 10:27:02;;;;;;;3.87;1.77;;;20.00;66.40;;;;;;10714073;33;20396;-70
2023/04/19 10:33:05;;;;;;;2.47;1.62;;;20.50;65.10;;;;;;10716381;33;20048;-71
2023/04/19 10:39:40;;;;;;;3.33;2.33;;;20.90;64.40;;;;;;10716256;33;20376;-71
2023/04/19 10:45:44;;;;;;;1.95;1.50;;;21.20;63.30;;;;;;10717412;33;20051;-71
2023/04/19 10:51:56;;;;;;;3.85;2.42;;;21.20;62.50;;;;;;10704134;33;20072;-72
2023/04/19 10:58:03;;;;;;;2.87;1.42;;;21.00;62.00;;;;;;10716842;33;20037;-71
2023/04/19 11:04:06;;;;;;;4.37;3.00;;;20.70;60.70;;;;;;10808001;33;20460;-72
2023/04/19 11:10:10;;;;;;;4.40;2.50;;;20.50;60.90;;;;;;10847536;32;20035;-73
2023/04/19 11:16:12;;;;;;;3.90;2.30;;;20.70;61.00;;;;;;10864720;32;20019;-73
2023/04/19 11:22:14;;;;;;;2.55;1.87;;;20.50;60.70;;;;;;10866438;32;20312;-72
2023/04/19 11:28:16;;;;;;;3.97;1.85;;;20.50;61.80;;;;;;10863954;32;20038;-72
2023/04/19 11:34:22;;;;;;;3.12;2.05;;;20.50;61.70;;;;;;10839940;32;20035;-72
2023/04/19 11:40:25;;;;;;;3.95;2.00;;;20.70;61.00;;;;;;10867004;32;20023;-71
2023/04/19 11:46:27;;;;;;;4.80;1.92;;;20.80;62.00;;;;;;10853287;32;20303;-72
2023/04/19 11:52:34;;;;;;;3.55;2.10;;;20.80;63.00;;;;;;10868505;32;20122;-72
2023/04/19 11:58:38;;;;;;;3.53;2.12;;;20.90;63.20;;;;;;10872589;32;20082;-72
2023/04/19 12:04:40;;;;;;;3.87;2.50;;;21.00;62.00;;;;;;10872606;32;20047;-72
2023/04/19 12:10:56;;;;;;;2.55;1.98;;;21.00;62.50;;;;;;10873667;32;20023;-71
2023/04/19 12:17:12;;;;;;;5.87;3.00;;;21.00;62.70;;;;;;10873837;32;20050;-72
2023/04/19 12:23:15;;;;;;;3.60;2.22;;;21.20;63.00;;;;;;10859946;32;20448;-71
2023/04/19 12:29:17;;;;;;;6.72;3.72;;;21.30;63.00;;;;;;10872451;32;20292;-72
2023/04/19 12:35:26;;;;;;;4.28;2.30;;;21.50;62.60;;;;;;10871978;32;20051;-72
2023/04/19 12:41:28;;;;;;;3.85;2.03;;;21.70;61.00;;;;;;10857604;32;20053;-72
2023/04/19 12:47:30;;;;;;;3.10;1.87;;;21.80;61.10;;;;;;10872418;32;20024;-71
2023/04/19 12:53:32;;;;;;;2.87;1.90;;;21.80;60.70;;;;;;10871357;32;20050;-71
2023/04/19 12:59:35;;;;;;;3.42;2.20;;;22.00;60.00;;;;;;10871320;32;20102;-71
2023/04/19 13:05:38;;;;;;;3.87;2.10;;;22.20;59.00;;;;;;10868770;32;20019;-71
2023/04/19 13:11:40;;;;;;;5.10;2.95;;;22.30;58.60;;;;;;10870798;32;20046;-71
2023/04/19 13:17:42;;;;;;;3.75;2.50;;;22.20;60.10;;;;;;10868279;32;20020;-71
2023/04/19 13:23:44;;;;;;;3.90;2.12;;;22.10;58.90;;;;;;10871250;32;20051;-71
2023/04/19 13:29:47;;;;;;;3.60;1.45;;;21.90;59.40;;;;;;10871319;32;20023;-72
2023/04/19 13:35:49;;;;;;;2.87;1.50;;;21.80;58.60;;;;;;10866756;32;20032;-72
2023/04/19 13:41:51;;;;;;;2.72;1.70;;;21.80;58.60;;;;;;10868622;32;20354;-72
2023/04/19 13:47:53;;;;;;;3.33;1.65;;;22.00;58.00;;;;;;10869615;32;20039;-71
2023/04/19 13:53:55;;;;;;;4.65;2.75;;;22.10;59.30;;;;;;10869189;32;20307;-71
2023/04/19 13:59:57;;;;;;;5.35;2.08;;;22.20;58.90;;;;;;10868578;32;20046;-71
2023/04/19 14:05:59;;;;;;;3.85;1.67;;;22.10;59.10;;;;;;10868181;32;20024;-71
2023/04/19 14:12:03;;;;;;;2.50;1.30;;;22.20;59.20;;;;;;10869307;32;20433;-71
2023/04/19 14:18:05;;;;;;;3.25;1.62;;;22.20;58.60;;;;;;10867784;32;20350;-71
2023/04/19 14:24:07;;;;;;;2.33;1.27;;;22.30;58.30;;;;;;10855691;32;20045;-71
2023/04/19 14:30:10;;;;;;;3.10;1.62;;;22.50;57.70;;;;;;10853286;32;20463;-71
2023/04/19 14:36:12;;;;;;;3.58;1.50;;;22.90;56.60;;;;;;10868394;32;20050;-71
2023/04/19 14:42:14;;;;;;;5.40;2.78;;;23.10;55.70;;;;;;10867619;32;20015;-71
2023/04/19 14:48:16;;;;;;;1.55;1.10;;;23.20;55.30;;;;;;10867530;32;20093;-71
2023/04/19 14:54:18;;;;;;;2.03;1.23;;;23.20;54.40;;;;;;10866868;32;20306;-71
2023/04/19 15:00:21;;;;;;;1.33;1.05;;;23.20;54.30;;;;;;10852903;32;20039;-71
2023/04/19 15:06:23;;;;;;;2.58;1.20;;;22.80;54.80;;;;;;10866679;32;20070;-71
2023/04/19 15:12:25;;;;;;;1.62;1.27;;;22.30;55.50;;;;;;10865899;32;20023;-71
2023/04/19 15:18:34;;;;;;;1.30;1.00;;;21.80;56.50;;;;;;10867180;32;20020;-71
2023/04/19 15:24:36;;;;;;;2.22;0.95;;;21.50;56.90;;;;;;10866572;32;20054;-71
2023/04/19 15:30:38;;;;;;;1.27;1.00;;;21.30;57.40;;;;;;10865486;32;20011;-71
2023/04/19 15:36:40;;;;;;;2.10;1.08;;;21.30;57.50;;;;;;10852191;32;20028;-71
2023/04/19 15:42:43;;;;;;;2.03;1.10;;;21.30;57.80;;;;;;10867115;32;20020;-71
2023/04/19 15:48:47;;;;;;;1.23;0.80;;;21.30;58.10;;;;;;10867535;32;20032;-71
2023/04/19 15:54:49;;;;;;;1.92;1.48;;;21.30;58.10;;;;;;10868958;27;20024;-71
2023/04/19 16:00:51;;;;;;;2.75;1.27;;;21.80;57.30;;;;;;10866797;32;20420;-71
2023/04/19 16:06:54;;;;;;;2.55;1.10;;;21.90;56.80;;;;;;10853430;32;20050;-71
2023/04/19 16:12:56;;;;;;;3.28;1.40;;;22.10;56.70;;;;;;10866046;32;20421;-71
2023/04/19 16:18:59;;;;;;;3.87;1.37;;;21.80;57.10;;;;;;10853190;32;20019;-71
2023/04/19 16:25:01;;;;;;;2.85;1.48;;;21.60;57.60;;;;;;10865785;32;20015;-71
2023/04/19 16:31:03;;;;;;;1.10;0.70;;;21.50;58.20;;;;;;10853276;32;20042;-70
2023/04/19 16:37:05;;;;;;;2.22;1.12;;;21.40;58.50;;;;;;10866040;32;20049;-71
2023/04/19 16:43:07;;;;;;;1.67;0.95;;;21.30;59.10;;;;;;10872618;32;20020;-71
2023/04/19 16:49:10;;;;;;;1.77;0.82;;;21.20;59.30;;;;;;10871729;32;20344;-71
2023/04/19 16:55:13;;;;;;;1.90;1.00;;;21.10;59.70;;;;;;10871083;32;20365;-71
2023/04/19 17:01:16;;;;;;;2.28;1.10;;;21.00;60.30;;;;;;10863804;32;20043;-71
2023/04/19 17:07:18;;;;;;;5.15;1.50;;;20.90;60.50;;;;;;10821695;32;20101;-71
2023/04/19 17:13:20;;;;;;;3.03;1.48;;;20.80;60.80;;;;;;10844609;32;20054;-71
2023/04/19 17:19:22;;;;;;;2.12;1.20;;;20.80;61.10;;;;;;10838893;32;20028;-71
2023/04/19 17:25:24;;;;;;;3.60;2.12;;;20.80;61.80;;;;;;10849148;32;20075;-71
2023/04/19 17:31:27;;;;;;;3.40;2.00;;;20.70;61.90;;;;;;10854959;32;20089;-71
2023/04/19 17:37:29;;;;;;;3.67;2.08;;;20.50;62.20;;;;;;10845976;32;20019;-71
2023/04/19 17:43:31;;;;;;;7.72;3.62;;;20.30;62.70;;;;;;10834023;32;20012;-71
2023/04/19 17:49:33;;;;;;;5.95;3.90;;;20.20;63.30;;;;;;10832637;32;20007;-71
2023/04/19 17:55:36;;;;;;;5.55;2.33;;;20.00;63.60;;;;;;10827712;32;20441;-70
2023/04/19 18:01:39;;;;;;;8.60;2.53;;;20.00;64.00;;;;;;10831586;32;20042;-71
2023/04/19 18:07:41;;;;;;;5.22;3.08;;;19.90;65.00;;;;;;10869530;32;20050;-71
2023/04/19 18:13:43;;;;;;;4.30;3.00;;;19.80;65.40;;;;;;10856316;32;20012;-71
2023/04/19 18:19:46;;;;;;;5.80;2.20;;;19.80;65.90;;;;;;10854638;32;20162;-71
2023/04/19 18:25:55;;;;;;;3.97;2.47;;;19.70;65.70;;;;;;10869124;32;20046;-71
2023/04/19 18:31:57;;;;;;;6.80;3.72;;;19.60;66.00;;;;;;10868832;32;20047;-71
2023/04/19 18:37:59;;;;;;;8.05;3.20;;;19.50;66.90;;;;;;10868680;32;20321;-71
2023/04/19 18:44:01;;;;;;;3.58;2.58;;;19.20;67.10;;;;;;10868421;32;20031;-71
2023/04/19 18:50:05;;;;;;;2.75;2.15;;;19.10;67.60;;;;;;10867762;32;20034;-71
2023/04/19 18:56:10;;;;;;;5.97;3.60;;;19.10;68.40;;;;;;10853453;32;20035;-71
2023/04/19 19:02:13;;;;;;;2.75;1.92;;;19.20;68.60;;;;;;10847944;32;20024;-71
2023/04/19 19:08:16;;;;;;;5.75;2.35;;;19.20;69.00;;;;;;10830292;32;20054;-71
2023/04/19 19:14:18;;;;;;;3.33;2.12;;;19.30;69.00;;;;;;10828217;32;20020;-71
2023/04/19 19:20:21;;;;;;;5.60;3.65;;;19.20;69.10;;;;;;10829918;32;20351;-71
2023/04/19 19:26:25;;;;;;;5.78;3.50;;;19.20;69.30;;;;;;10829752;32;20042;-71
2023/04/19 19:32:28;;;;;;;6.20;2.70;;;19.00;69.50;;;;;;10829600;33;20055;-71
2023/04/19 19:38:30;;;;;;;8.27;4.82;;;18.90;69.90;;;;;;10830176;33;20024;-71
2023/04/19 19:44:32;;;;;;;6.03;4.00;;;18.80;70.10;;;;;;10816901;33;20020;-71
2023/04/19 19:50:38;;;;;;;5.95;4.47;;;18.90;70.10;;;;;;10829805;32;20024;-70
2023/04/19 19:56:40;;;;;;;6.45;3.95;;;18.90;70.20;;;;;;10829793;33;20047;-69
2023/04/19 20:02:43;;;;;;;5.78;3.20;;;19.00;70.60;;;;;;10828855;33;20016;-70
2023/04/19 20:08:48;;;;;;;7.05;4.25;;;18.80;70.40;;;;;;10829663;33;20060;-70
2023/04/19 20:14:56;;;;;;;4.53;3.03;;;18.70;71.80;;;;;;10818453;32;20036;-70
2023/04/19 20:20:59;;;;;;;5.37;3.63;;;18.60;72.30;;;;;;10821626;32;20040;-70
2023/04/19 20:27:03;;;;;;;5.53;3.47;;;18.50;72.30;;;;;;10836145;32;20020;-70
2023/04/19 20:33:06;;;;;;;4.87;3.12;;;18.40;72.80;;;;;;10834888;32;20019;-69
2023/04/19 20:39:12;;;;;;;5.62;3.03;;;18.40;73.40;;;;;;10834628;32;20032;-69
2023/04/19 20:45:53;;;;;;;6.70;3.67;;;18.40;73.60;;;;;;10835270;32;20043;-70
2023/04/19 20:52:02;;;;;;;5.40;2.83;;;18.40;73.50;;;;;;10834128;32;20033;-70
2023/04/19 20:58:33;;;;;;;4.50;2.67;;;18.40;73.80;;;;;;10833661;32;20028;-69
2023/04/19 21:04:38;;;;;;;7.60;3.55;;;18.30;74.70;;;;;;10821753;32;20038;-69
2023/04/19 21:10:42;;;;;;;4.32;2.70;;;18.30;74.80;;;;;;10832633;32;20024;-69
2023/04/19 21:16:45;;;;;;;4.18;2.33;;;18.30;74.70;;;;;;10834100;32;20024;-69
2023/04/19 21:23:02;;;;;;;5.90;2.67;;;18.20;75.00;;;;;;10833993;32;20042;-70
2023/04/19 21:29:05;;;;;;;1.45;1.30;;;18.20;75.80;;;;;;10818906;32;20027;-69
2023/04/19 21:35:07;;;;;;;2.62;1.27;;;18.10;76.30;;;;;;10820200;32;20055;-69
2023/04/19 21:48:14;;;;;;;1.65;1.30;;;18.00;76.50;;;;;;10832846;32;20425;-69
2023/04/19 21:54:16;;;;;;;2.35;1.52;;;18.00;76.80;;;;;;10816718;32;20028;-69
2023/04/19 22:00:18;;;;;;;2.97;1.55;;;18.00;76.80;;;;;;10832546;32;20047;-69
2023/04/19 22:06:20;;;;;;;1.62;1.20;;;18.10;76.80;;;;;;10832251;32;20008;-69
2023/04/19 22:12:23;;;;;;;5.07;2.00;;;18.10;76.80;;;;;;10817537;32;20032;-69
2023/04/19 22:18:27;;;;;;;2.65;2.00;;;17.90;76.70;;;;;;10831615;32;20015;-69
2023/04/19 22:24:29;;;;;;;2.72;1.50;;;17.80;76.70;;;;;;10831329;32;20043;-70
2023/04/19 22:30:31;;;;;;;2.20;1.52;;;17.70;77.30;;;;;;10831364;32;20016;-69
2023/04/19 22:36:33;;;;;;;3.05;1.90;;;17.70;76.90;;;;;;10830245;32;20042;-69
2023/04/19 22:42:35;;;;;;;2.10;1.50;;;17.60;76.80;;;;;;10830335;32;20035;-69
2023/04/19 22:48:37;;;;;;;4.93;2.30;;;17.60;76.90;;;;;;10830186;32;20052;-69
2023/04/19 22:54:39;;;;;;;1.23;1.10;;;17.60;77.20;;;;;;10816205;32;20027;-70
2023/04/19 23:00:41;;;;;;;2.67;1.80;;;17.70;77.20;;;;;;10830783;32;20046;-69
2023/04/19 23:06:44;;;;;;;1.98;1.33;;;17.70;77.10;;;;;;10830232;32;20008;-69
2023/04/19 23:12:46;;;;;;;2.62;1.37;;;17.70;77.20;;;;;;10829267;32;20020;-69
2023/04/19 23:18:48;;;;;;;1.30;1.08;;;17.70;77.30;;;;;;10829413;32;20055;-70
2023/04/19 23:24:50;;;;;;;1.60;1.37;;;17.70;77.30;;;;;;10830413;32;20371;-70
2023/04/19 23:30:52;;;;;;;2.37;1.08;;;17.70;77.40;;;;;;10830306;32;20416;-70
2023/04/19 23:36:59;;;;;;;2.08;1.55;;;17.60;77.30;;;;;;10817381;33;20055;-70
2023/04/19 23:43:01;;;;;;;2.12;1.50;;;17.50;77.50;;;;;;10829483;33;20012;-70
2023/04/19 23:49:03;;;;;;;2.45;1.50;;;17.40;77.60;;;;;;10818355;32;20036;-70
2023/04/19 23:55:15;;;;;;;1.70;1.52;;;17.40;77.60;;;;;;10869722;27;20053;-70
